Schedule Details


Flight Number: CTN674
Departure: Zadar Airport (LDZD) at 15:25
Arrival: Pula Airport (LDPL) at 16:00
Route: EBITA N606 LOS

Weather Information
LDZD 192100Z 13004KT CAVOK 11/10 Q1019 NOSIG
LDPL 192100Z VRB01KT 4400 MIFG BR NSC 10/10 Q1019 BECMG 2000 BCFG BKN005
Schedule Frequency

Route Map